createdAt,value
2023-03-16T00:00:14.994Z,100933.75
2023-03-16T00:02:41.532Z,100939.97
2023-03-16T00:05:07.886Z,100934.09
2023-03-16T00:07:34.765Z,100931.47
2023-03-16T00:10:01.534Z,100937.50
2023-03-16T00:12:27.910Z,100939.69
2023-03-16T00:14:54.364Z,100944.31
2023-03-16T00:17:20.988Z,100939.16
2023-03-16T00:19:47.445Z,100930.66
2023-03-16T00:22:14.860Z,100934.44
2023-03-16T00:24:43.348Z,100933.25
2023-03-16T00:27:09.651Z,100946.81
2023-03-16T00:29:35.984Z,100945.59
2023-03-16T00:32:03.540Z,100934.53
2023-03-16T00:34:30.170Z,100938.78
2023-03-16T00:36:56.559Z,100942.09
2023-03-16T00:39:22.943Z,100948.09
2023-03-16T00:41:49.269Z,100950.91
2023-03-16T00:44:15.597Z,100942.84
2023-03-16T00:46:42.914Z,100950.84
2023-03-16T00:49:09.595Z,100953.72
2023-03-16T00:51:35.997Z,100956.47
2023-03-16T00:54:02.394Z,100959.47
2023-03-16T00:56:29.173Z,100958.31
2023-03-16T00:58:57.979Z,100956.88
2023-03-16T01:01:24.597Z,100960.94
2023-03-16T01:03:50.976Z,100963.53
2023-03-16T01:06:17.390Z,100954.81
2023-03-16T01:08:43.746Z,100964.88
2023-03-16T01:11:10.539Z,100960.47
2023-03-16T01:13:36.890Z,100957.22
2023-03-16T01:16:04.531Z,100969.53
2023-03-16T01:18:34.275Z,100972.75
2023-03-16T01:21:01.824Z,100971.94
2023-03-16T01:23:30.392Z,100986.72
2023-03-16T01:25:57.122Z,100979.56
2023-03-16T01:28:24.769Z,100981.47
2023-03-16T01:30:54.235Z,100985.28
2023-03-16T01:33:20.709Z,100989.75
2023-03-16T01:35:47.041Z,100987.13
2023-03-16T01:38:13.401Z,100990.59
2023-03-16T01:40:39.730Z,100990.59
2023-03-16T01:43:06.066Z,100993.59
2023-03-16T01:45:32.818Z,100994.91
2023-03-16T01:47:59.207Z,100990.91
2023-03-16T01:50:25.872Z,100993.16
2023-03-16T01:52:52.453Z,101001.28
2023-03-16T01:55:18.805Z,100991.62
2023-03-16T01:57:45.121Z,100988.34
2023-03-16T02:00:14.510Z,100996.28
2023-03-16T02:02:40.861Z,101000.47
2023-03-16T02:05:07.257Z,100996.81
2023-03-16T02:07:34.668Z,100998.38
2023-03-16T02:10:02.525Z,100996.28
2023-03-16T02:12:29.376Z,101003.19
2023-03-16T02:14:55.727Z,100991.25
2023-03-16T02:17:22.078Z,100986.94
2023-03-16T02:19:48.426Z,100995.63
2023-03-16T02:22:14.734Z,101001.38
2023-03-16T02:24:41.082Z,100997.22
2023-03-16T02:27:07.507Z,100996.37
2023-03-16T02:29:33.810Z,100995.84
2023-03-16T02:32:02.733Z,100998.19
2023-03-16T02:34:29.041Z,100997.53
2023-03-16T02:36:55.366Z,100992.16
2023-03-16T02:39:21.690Z,100994.69
2023-03-16T02:41:48.004Z,100993.63
2023-03-16T02:44:15.461Z,101009.53
2023-03-16T02:46:43.579Z,100999.41
2023-03-16T02:49:10.136Z,101005.75
2023-03-16T02:51:36.466Z,100999.09
2023-03-16T02:54:03.446Z,101000.66
2023-03-16T02:56:29.780Z,101000.66
2023-03-16T02:58:57.489Z,101003.41
2023-03-16T03:01:23.947Z,101009.44
2023-03-16T03:03:50.265Z,101012.00
2023-03-16T03:06:16.626Z,101006.16
2023-03-16T03:08:42.944Z,101009.59
2023-03-16T03:11:09.255Z,101004.81
2023-03-16T03:13:38.258Z,101003.78
2023-03-16T03:16:04.646Z,101002.69
2023-03-16T03:18:30.984Z,101004.66
2023-03-16T03:20:57.326Z,101006.53
2023-03-16T03:23:23.793Z,101003.22
2023-03-16T03:25:50.114Z,101015.22
2023-03-16T03:28:16.422Z,101011.06
2023-03-16T03:30:42.822Z,101023.87
2023-03-16T03:33:09.236Z,101016.19
2023-03-16T03:35:35.642Z,101027.59
2023-03-16T03:38:02.025Z,101026.16
2023-03-16T03:40:28.579Z,101027.00
2023-03-16T03:42:55.036Z,101031.84
2023-03-16T03:45:21.355Z,101025.88
2023-03-16T03:47:47.715Z,101028.03
2023-03-16T03:50:14.137Z,101029.34
2023-03-16T03:52:40.575Z,101033.63
2023-03-16T03:55:06.917Z,101025.50
2023-03-16T03:57:33.269Z,101033.87
2023-03-16T03:59:59.622Z,101034.59
2023-03-16T04:02:26.030Z,101034.91
2023-03-16T04:04:52.385Z,101043.13
2023-03-16T04:07:18.718Z,101043.44
2023-03-16T04:09:45.129Z,101041.75
2023-03-16T04:12:11.445Z,101039.28
2023-03-16T04:14:37.844Z,101038.78
2023-03-16T04:17:04.985Z,101028.69
2023-03-16T04:19:31.387Z,101047.13
2023-03-16T04:21:57.778Z,101042.00
2023-03-16T04:24:24.121Z,101032.97
2023-03-16T04:26:50.432Z,101040.47
2023-03-16T04:29:19.786Z,101039.53
2023-03-16T04:31:46.110Z,101036.78
2023-03-16T04:34:12.472Z,101040.00
2023-03-16T04:36:39.136Z,101034.69
2023-03-16T04:39:05.518Z,101037.06
2023-03-16T04:41:31.842Z,101040.53
2023-03-16T04:43:58.167Z,101037.31
2023-03-16T04:46:24.794Z,101046.25
2023-03-16T04:48:51.214Z,101038.34
2023-03-16T04:51:17.545Z,101040.41
2023-03-16T04:53:44.790Z,101034.94
2023-03-16T04:56:18.167Z,101033.28
2023-03-16T04:58:44.536Z,101038.75
2023-03-16T05:01:10.910Z,101039.34
2023-03-16T05:03:37.226Z,101041.13
2023-03-16T05:06:03.705Z,101029.13
2023-03-16T05:08:30.074Z,101026.03
2023-03-16T05:10:56.414Z,101027.81
2023-03-16T05:13:22.737Z,101037.56
2023-03-16T05:15:49.052Z,101035.91
2023-03-16T05:18:15.414Z,101050.06
2023-03-16T05:20:42.334Z,101042.69
2023-03-16T05:23:08.715Z,101042.78
2023-03-16T05:25:35.054Z,101041.50
2023-03-16T05:28:02.137Z,101043.00
2023-03-16T05:30:28.695Z,101041.69
2023-03-16T05:32:57.948Z,101046.47
2023-03-16T05:35:24.492Z,101047.53
2023-03-16T05:37:50.889Z,101046.25
2023-03-16T05:40:17.417Z,101048.16
2023-03-16T05:42:44.053Z,101055.38
2023-03-16T05:45:10.524Z,101063.44
2023-03-16T05:47:37.401Z,101059.12
2023-03-16T05:50:03.726Z,101057.44
2023-03-16T05:52:30.394Z,101056.59
2023-03-16T05:54:56.793Z,101071.06
2023-03-16T05:57:23.830Z,101066.00
2023-03-16T05:59:50.572Z,101061.16
2023-03-16T06:02:16.906Z,101057.59
2023-03-16T06:04:43.215Z,101058.78
2023-03-16T06:07:09.573Z,101061.00
2023-03-16T06:09:35.878Z,101058.19
2023-03-16T06:12:02.200Z,101062.59
2023-03-16T06:14:30.324Z,101055.38
2023-03-16T06:16:56.673Z,101069.78
2023-03-16T06:19:23.000Z,101064.56
2023-03-16T06:21:49.445Z,101068.84
2023-03-16T06:24:15.770Z,101065.59
2023-03-16T06:26:42.101Z,101070.94
2023-03-16T06:29:08.447Z,101064.63
2023-03-16T06:31:34.844Z,101071.75
2023-03-16T06:34:01.379Z,101072.47
2023-03-16T06:36:27.840Z,101073.00
2023-03-16T06:38:54.364Z,101064.88
2023-03-16T06:41:21.305Z,101068.22
2023-03-16T06:43:47.624Z,101078.19
2023-03-16T06:46:13.984Z,101076.66
2023-03-16T06:48:40.568Z,101083.09
2023-03-16T06:51:07.804Z,101074.56
2023-03-16T06:53:34.246Z,101079.78
2023-03-16T06:56:01.320Z,101083.84
2023-03-16T06:58:27.620Z,101071.03
2023-03-16T07:00:54.059Z,101078.97
2023-03-16T07:03:20.417Z,101082.78
2023-03-16T07:05:46.731Z,101078.13
2023-03-16T07:08:15.255Z,101093.94
2023-03-16T07:10:42.287Z,101085.22
2023-03-16T07:13:08.598Z,101082.28
2023-03-16T07:15:34.931Z,101082.00
2023-03-16T07:18:01.234Z,101090.34
2023-03-16T07:20:30.519Z,101084.16
2023-03-16T07:22:57.034Z,101087.97
2023-03-16T07:25:23.354Z,101084.91
2023-03-16T07:27:49.753Z,101097.44
2023-03-16T07:30:16.100Z,101096.28
2023-03-16T07:32:42.475Z,101089.47
2023-03-16T07:35:08.851Z,101103.22
2023-03-16T07:37:35.283Z,101097.59
2023-03-16T07:40:01.605Z,101099.78
2023-03-16T07:42:27.930Z,101093.12
2023-03-16T07:44:54.350Z,101104.06
2023-03-16T07:47:21.161Z,101090.06
2023-03-16T07:49:47.517Z,101082.41
2023-03-16T07:52:13.832Z,101075.25
2023-03-16T07:54:40.591Z,101073.28
2023-03-16T07:57:06.932Z,101082.66
2023-03-16T07:59:33.238Z,101080.19
2023-03-16T08:01:59.575Z,101079.28
2023-03-16T08:04:26.032Z,101089.47
2023-03-16T08:07:00.302Z,101087.09
2023-03-16T08:09:26.816Z,101090.41
2023-03-16T08:11:53.122Z,101086.75
2023-03-16T08:14:19.487Z,101086.84
2023-03-16T08:16:45.932Z,101087.44
2023-03-16T08:19:13.179Z,101086.69
2023-03-16T08:21:53.101Z,101089.47
2023-03-16T08:24:25.768Z,101085.03
2023-03-16T08:26:52.082Z,101084.22
2023-03-16T08:29:19.038Z,101089.91
2023-03-16T08:31:45.362Z,101078.00
2023-03-16T08:34:11.702Z,101085.88
2023-03-16T08:36:38.090Z,101092.69
2023-03-16T08:39:07.562Z,101094.72
2023-03-16T08:41:34.833Z,101096.38
2023-03-16T08:44:02.090Z,101096.28
2023-03-16T08:46:28.493Z,101097.38
2023-03-16T08:48:56.018Z,101098.16
2023-03-16T08:51:22.377Z,101091.00
2023-03-16T08:53:48.700Z,101095.81
2023-03-16T08:56:15.025Z,101086.47
2023-03-16T08:58:45.352Z,101098.22
2023-03-16T09:01:12.658Z,101091.78
2023-03-16T09:03:38.975Z,101091.66
2023-03-16T09:06:05.352Z,101096.66
2023-03-16T09:08:31.643Z,101103.41
2023-03-16T09:10:57.968Z,101101.25
2023-03-16T09:13:24.623Z,101092.41
2023-03-16T09:15:51.053Z,101079.09
2023-03-16T09:18:19.206Z,101088.63
2023-03-16T09:20:47.832Z,101092.72
2023-03-16T09:23:14.229Z,101091.94
2023-03-16T09:25:40.630Z,101095.78
2023-03-16T09:28:07.004Z,101092.34
2023-03-16T09:30:33.332Z,101085.81
2023-03-16T09:32:59.738Z,101093.75
2023-03-16T09:35:26.631Z,101095.84
2023-03-16T09:38:05.643Z,101082.09
2023-03-16T09:40:32.772Z,101089.62
2023-03-16T09:42:59.591Z,101098.84
2023-03-16T09:45:26.158Z,101095.84
2023-03-16T09:47:52.490Z,101087.56
2023-03-16T09:50:18.891Z,101089.94
2023-03-16T09:52:45.221Z,101087.44
2023-03-16T09:55:11.529Z,101077.91
2023-03-16T09:57:39.760Z,101078.31
2023-03-16T10:00:06.160Z,101067.69
2023-03-16T10:02:32.515Z,101073.44
2023-03-16T10:04:59.395Z,101066.56
2023-03-16T10:07:26.521Z,101070.63
2023-03-16T10:09:52.846Z,101068.66
2023-03-16T10:12:19.732Z,101077.78
2023-03-16T10:14:46.047Z,101066.03
2023-03-16T10:17:12.391Z,101074.47
2023-03-16T10:19:38.715Z,101070.41
2023-03-16T10:22:05.462Z,101069.12
2023-03-16T10:24:34.315Z,101074.88
2023-03-16T10:27:00.725Z,101075.34
2023-03-16T10:29:28.166Z,101074.75
2023-03-16T10:31:54.532Z,101072.84
2023-03-16T10:34:20.981Z,101063.78
2023-03-16T10:36:47.938Z,101070.06
2023-03-16T10:39:14.256Z,101070.28
2023-03-16T10:41:41.175Z,101073.97
2023-03-16T10:44:09.086Z,101061.91
2023-03-16T10:46:35.503Z,101064.63
2023-03-16T10:49:01.982Z,101061.38
2023-03-16T10:51:28.405Z,101065.94
2023-03-16T10:53:54.720Z,101059.34
2023-03-16T10:56:21.098Z,101046.75
2023-03-16T10:58:47.431Z,101050.28
2023-03-16T11:01:14.019Z,101039.28
2023-03-16T11:03:41.339Z,101043.09
2023-03-16T11:06:07.741Z,101043.44
2023-03-16T11:08:34.232Z,101044.38
2023-03-16T11:11:01.160Z,101041.34
2023-03-16T11:13:27.491Z,101033.16
2023-03-16T11:15:54.080Z,101033.72
2023-03-16T11:18:20.399Z,101024.81
2023-03-16T11:20:47.322Z,101027.66
2023-03-16T11:23:13.662Z,101031.62
2023-03-16T11:25:41.475Z,101021.41
2023-03-16T11:28:13.186Z,101015.97
2023-03-16T11:30:39.560Z,101023.13
2023-03-16T11:33:06.448Z,101007.41
2023-03-16T11:35:32.788Z,101011.03
2023-03-16T11:37:59.307Z,101003.41
2023-03-16T11:40:25.715Z,101006.84
2023-03-16T11:42:52.599Z,100991.84
2023-03-16T11:45:19.079Z,100992.09
2023-03-16T11:47:45.678Z,101004.31
2023-03-16T11:50:12.034Z,100994.94
2023-03-16T11:52:38.715Z,101002.94
2023-03-16T11:55:05.029Z,100990.91
2023-03-16T11:57:33.050Z,100994.38
2023-03-16T12:00:01.428Z,100992.41
2023-03-16T12:02:28.516Z,100974.62
2023-03-16T12:04:55.311Z,100979.69
2023-03-16T12:07:22.025Z,100977.50
2023-03-16T12:09:51.040Z,100984.25
2023-03-16T12:12:17.358Z,100974.72
2023-03-16T12:14:44.262Z,100962.59
2023-03-16T12:17:10.992Z,100976.19
2023-03-16T12:19:37.356Z,100972.22
2023-03-16T12:22:04.310Z,100976.22
2023-03-16T12:24:30.684Z,100966.66
2023-03-16T12:26:57.505Z,100959.72
2023-03-16T12:29:23.858Z,100958.72
2023-03-16T12:31:50.297Z,100967.28
2023-03-16T12:34:17.515Z,100962.91
2023-03-16T12:36:44.670Z,100960.44
2023-03-16T12:39:12.043Z,100947.31
2023-03-16T12:41:38.426Z,100948.84
2023-03-16T12:44:04.789Z,100952.47
2023-03-16T12:46:31.420Z,100945.56
2023-03-16T12:48:57.753Z,100953.97
2023-03-16T12:51:24.080Z,100939.66
2023-03-16T12:53:50.400Z,100945.56
2023-03-16T12:56:17.665Z,100945.44
2023-03-16T12:58:45.545Z,100944.09
2023-03-16T13:01:11.940Z,100937.81
2023-03-16T13:03:38.333Z,100933.59
2023-03-16T13:06:04.688Z,100935.09
2023-03-16T13:08:31.011Z,100928.25
2023-03-16T13:10:57.450Z,100922.63
2023-03-16T13:13:25.694Z,100924.81
2023-03-16T13:15:59.880Z,100923.84
2023-03-16T13:18:26.231Z,100922.03
2023-03-16T13:20:52.578Z,100917.63
2023-03-16T13:23:18.898Z,100917.56
2023-03-16T13:25:45.600Z,100910.22
2023-03-16T13:28:12.097Z,100906.09
2023-03-16T13:30:38.659Z,100904.66
2023-03-16T13:33:05.046Z,100904.31
2023-03-16T13:35:31.866Z,100904.13
2023-03-16T13:37:58.523Z,100890.81
2023-03-16T13:40:24.900Z,100893.88
2023-03-16T13:42:53.137Z,100893.97
2023-03-16T13:45:19.541Z,100907.53
2023-03-16T13:47:46.116Z,100897.41
2023-03-16T13:50:12.462Z,100898.91
2023-03-16T13:52:39.200Z,100894.97
2023-03-16T13:55:05.565Z,100893.12
2023-03-16T13:57:31.938Z,100885.63
2023-03-16T13:59:59.345Z,100883.25
2023-03-16T14:02:25.805Z,100882.31
2023-03-16T14:04:52.213Z,100881.34
2023-03-16T14:07:18.665Z,100878.47
2023-03-16T14:09:49.961Z,100874.63
2023-03-16T14:12:16.331Z,100878.72
2023-03-16T14:14:42.668Z,100867.31
2023-03-16T14:17:08.988Z,100865.44
2023-03-16T14:19:42.400Z,100867.47
2023-03-16T14:22:09.467Z,100866.12
2023-03-16T14:24:35.840Z,100860.59
2023-03-16T14:27:02.508Z,100857.81
2023-03-16T14:29:30.354Z,100854.25
2023-03-16T14:31:56.795Z,100857.59
2023-03-16T14:34:23.170Z,100859.66
2023-03-16T14:36:49.512Z,100850.13
2023-03-16T14:39:17.389Z,100857.28
2023-03-16T14:41:43.752Z,100855.62
2023-03-16T14:44:10.422Z,100858.34
2023-03-16T14:46:36.778Z,100856.81
2023-03-16T14:49:03.725Z,100856.16
2023-03-16T14:51:30.419Z,100850.97
2023-03-16T14:53:56.966Z,100859.34
2023-03-16T14:56:23.482Z,100859.03
2023-03-16T14:58:49.846Z,100850.97
2023-03-16T15:01:16.215Z,100849.63
2023-03-16T15:03:43.520Z,100854.97
2023-03-16T15:06:10.063Z,100848.25
2023-03-16T15:08:42.248Z,100850.09
2023-03-16T15:11:08.669Z,100843.91
2023-03-16T15:13:42.441Z,100848.53
2023-03-16T15:16:08.945Z,100843.03
2023-03-16T15:18:35.295Z,100836.13
2023-03-16T15:21:02.280Z,100827.56
2023-03-16T15:23:28.600Z,100834.53
2023-03-16T15:26:00.153Z,100846.84
2023-03-16T15:28:26.506Z,100828.41
2023-03-16T15:30:52.911Z,100835.81
2023-03-16T15:33:19.297Z,100834.59
2023-03-16T15:35:45.683Z,100844.47
2023-03-16T15:38:11.999Z,100843.06
2023-03-16T15:40:38.329Z,100833.53
2023-03-16T15:43:05.214Z,100835.50
2023-03-16T15:45:31.557Z,100836.72
2023-03-16T15:47:58.306Z,100839.69
2023-03-16T15:50:24.998Z,100842.84
2023-03-16T15:52:51.421Z,100838.22
2023-03-16T15:55:17.753Z,100838.03
2023-03-16T15:57:45.648Z,100825.47
2023-03-16T16:00:12.235Z,100815.03
2023-03-16T16:02:38.575Z,100809.28
2023-03-16T16:05:04.882Z,100807.63
2023-03-16T16:07:31.555Z,100801.41
2023-03-16T16:09:57.888Z,100811.94
2023-03-16T16:12:27.099Z,100813.63
2023-03-16T16:14:53.524Z,100822.72
2023-03-16T16:17:36.420Z,100822.75
2023-03-16T16:20:07.461Z,100826.63
2023-03-16T16:22:34.036Z,100837.47
2023-03-16T16:25:00.683Z,100828.72
2023-03-16T16:27:27.116Z,100829.16
2023-03-16T16:29:53.451Z,100824.03
2023-03-16T16:32:19.773Z,100838.00
2023-03-16T16:35:01.801Z,100838.41
2023-03-16T16:37:30.446Z,100842.66
2023-03-16T16:39:57.052Z,100848.91
2023-03-16T16:42:23.417Z,100847.56
2023-03-16T16:44:49.730Z,100850.75
2023-03-16T16:47:16.133Z,100845.81
2023-03-16T16:49:42.636Z,100836.87
2023-03-16T16:52:09.784Z,100839.53
2023-03-16T16:54:37.060Z,100844.97
2023-03-16T16:57:03.393Z,100840.87
2023-03-16T16:59:29.746Z,100842.50
2023-03-16T17:01:56.729Z,100839.91
2023-03-16T17:04:24.641Z,100830.09
2023-03-16T17:06:52.407Z,100823.13
2023-03-16T17:09:18.779Z,100817.59
2023-03-16T17:11:45.115Z,100820.44
2023-03-16T17:14:11.520Z,100815.72
2023-03-16T17:16:38.145Z,100819.19
2023-03-16T17:19:04.553Z,100829.56
2023-03-16T17:21:31.365Z,100819.97
2023-03-16T17:23:57.687Z,100817.91
2023-03-16T17:26:24.213Z,100823.66
2023-03-16T17:28:50.789Z,100816.78
2023-03-16T17:31:17.583Z,100823.72
2023-03-16T17:33:43.907Z,100812.31
2023-03-16T17:36:10.296Z,100820.53
2023-03-16T17:38:37.400Z,100829.84
2023-03-16T17:41:03.745Z,100825.50
2023-03-16T17:43:31.893Z,100832.38
2023-03-16T17:45:58.308Z,100831.66
2023-03-16T17:48:25.231Z,100839.72
2023-03-16T17:50:52.051Z,100823.72
2023-03-16T17:53:18.424Z,100811.28
2023-03-16T17:55:45.457Z,100814.34
2023-03-16T17:58:12.291Z,100806.94
2023-03-16T18:00:39.587Z,100807.53
2023-03-16T18:03:06.103Z,100807.88
2023-03-16T18:05:32.714Z,100810.06
2023-03-16T18:07:59.190Z,100794.62
2023-03-16T18:10:25.568Z,100797.62
2023-03-16T18:12:51.939Z,100800.66
2023-03-16T18:15:21.364Z,100810.34
2023-03-16T18:17:48.506Z,100810.84
2023-03-16T18:20:16.706Z,100794.22
2023-03-16T18:22:43.992Z,100798.44
2023-03-16T18:25:10.490Z,100792.59
2023-03-16T18:27:40.719Z,100787.94
2023-03-16T18:30:08.685Z,100780.53
2023-03-16T18:32:35.148Z,100778.81
2023-03-16T18:35:03.883Z,100781.72
2023-03-16T18:37:30.466Z,100778.88
2023-03-16T18:39:56.794Z,100779.94
2023-03-16T18:42:23.263Z,100773.03
2023-03-16T18:44:49.595Z,100774.41
2023-03-16T18:47:16.747Z,100783.84
2023-03-16T18:49:47.216Z,100783.13
2023-03-16T18:52:13.765Z,100783.75
2023-03-16T18:54:40.198Z,100781.56
2023-03-16T18:57:06.532Z,100772.37
2023-03-16T18:59:32.864Z,100768.69
2023-03-16T19:01:59.247Z,100770.34
2023-03-16T19:04:25.625Z,100751.56
2023-03-16T19:06:53.516Z,100751.34
2023-03-16T19:09:19.883Z,100757.19
2023-03-16T19:11:46.267Z,100767.41
2023-03-16T19:14:13.609Z,100767.38
2023-03-16T19:16:39.979Z,100761.59
2023-03-16T19:19:07.168Z,100770.34
2023-03-16T19:21:34.196Z,100768.13
2023-03-16T19:24:00.915Z,100770.97
2023-03-16T19:26:27.495Z,100765.41
2023-03-16T19:28:53.945Z,100764.38
2023-03-16T19:31:20.476Z,100756.34
2023-03-16T19:33:46.933Z,100754.25
2023-03-16T19:36:13.254Z,100759.50
2023-03-16T19:38:39.571Z,100759.34
2023-03-16T19:41:06.088Z,100747.34
2023-03-16T19:43:32.397Z,100751.56
2023-03-16T19:45:58.890Z,100748.87
2023-03-16T19:48:25.269Z,100748.94
2023-03-16T19:50:52.117Z,100744.50
2023-03-16T19:53:18.499Z,100744.22
2023-03-16T19:55:44.850Z,100739.41
2023-03-16T19:58:11.186Z,100740.97
2023-03-16T20:00:37.683Z,100747.56
2023-03-16T20:03:04.018Z,100750.31
2023-03-16T20:05:31.026Z,100755.63
2023-03-16T20:07:57.728Z,100749.00
2023-03-16T20:10:24.178Z,100758.63
2023-03-16T20:12:50.683Z,100755.16
2023-03-16T20:15:17.330Z,100753.34
2023-03-16T20:17:44.220Z,100751.94
2023-03-16T20:20:10.539Z,100764.69
2023-03-16T20:22:36.917Z,100757.47
2023-03-16T20:25:05.390Z,100754.47
2023-03-16T20:27:31.711Z,100743.94
2023-03-16T20:29:58.087Z,100744.31
2023-03-16T20:32:24.646Z,100754.94
2023-03-16T20:34:51.539Z,100750.69
2023-03-16T20:37:17.891Z,100750.28
2023-03-16T20:39:45.231Z,100743.03
2023-03-16T20:42:11.566Z,100737.19
2023-03-16T20:44:38.805Z,100739.72
2023-03-16T20:47:05.180Z,100743.69
2023-03-16T20:49:32.449Z,100749.78
2023-03-16T20:51:58.806Z,100739.59
2023-03-16T20:54:25.196Z,100737.56
2023-03-16T20:56:51.749Z,100730.47
2023-03-16T20:59:20.174Z,100723.81
2023-03-16T21:01:47.077Z,100729.16
2023-03-16T21:04:13.553Z,100728.28
2023-03-16T21:06:40.080Z,100726.31
2023-03-16T21:09:06.513Z,100723.09
2023-03-16T21:11:32.831Z,100722.19
2023-03-16T21:13:59.141Z,100717.84
2023-03-16T21:16:25.519Z,100722.44
2023-03-16T21:18:51.876Z,100711.50
2023-03-16T21:21:18.271Z,100705.50
2023-03-16T21:23:44.592Z,100702.13
2023-03-16T21:26:10.935Z,100703.78
2023-03-16T21:28:37.684Z,100707.41
2023-03-16T21:31:04.046Z,100715.69
2023-03-16T21:33:30.570Z,100705.28
2023-03-16T21:35:57.004Z,100711.87
2023-03-16T21:38:26.564Z,100698.03
2023-03-16T21:40:52.932Z,100702.50
2023-03-16T21:43:19.284Z,100699.72
2023-03-16T21:45:46.103Z,100692.62
2023-03-16T21:48:12.507Z,100697.59
2023-03-16T21:50:38.948Z,100709.78
2023-03-16T21:53:05.261Z,100707.59
2023-03-16T21:55:31.972Z,100709.31
2023-03-16T21:57:58.734Z,100698.56
2023-03-16T22:00:25.774Z,100703.62
2023-03-16T22:02:52.286Z,100700.56
2023-03-16T22:05:18.685Z,100700.84
2023-03-16T22:07:44.980Z,100702.31
2023-03-16T22:10:11.540Z,100701.72
2023-03-16T22:12:37.869Z,100697.84
2023-03-16T22:15:04.593Z,100686.25
2023-03-16T22:17:33.329Z,100685.41
2023-03-16T22:19:59.638Z,100679.06
2023-03-16T22:22:26.297Z,100671.91
2023-03-16T22:24:53.055Z,100673.34
2023-03-16T22:27:19.439Z,100674.72
2023-03-16T22:29:45.830Z,100664.19
2023-03-16T22:32:12.471Z,100664.19
2023-03-16T22:34:38.823Z,100667.87
2023-03-16T22:37:05.740Z,100652.41
2023-03-16T22:39:32.046Z,100643.81
2023-03-16T22:41:58.392Z,100645.44
2023-03-16T22:44:25.000Z,100643.50
2023-03-16T22:46:51.562Z,100625.72
2023-03-16T22:49:17.871Z,100636.25
2023-03-16T22:51:44.176Z,100622.72
2023-03-16T22:54:10.873Z,100628.31
2023-03-16T22:56:37.405Z,100625.59
2023-03-16T22:59:03.766Z,100633.00
2023-03-16T23:01:30.195Z,100633.44
2023-03-16T23:03:56.623Z,100634.53
2023-03-16T23:06:23.004Z,100618.66
2023-03-16T23:08:49.327Z,100621.72
2023-03-16T23:11:16.829Z,100616.72
2023-03-16T23:13:43.173Z,100624.47
2023-03-16T23:16:09.503Z,100625.53
2023-03-16T23:18:36.531Z,100627.41
2023-03-16T23:21:02.893Z,100618.84
2023-03-16T23:23:29.230Z,100616.31
2023-03-16T23:25:55.596Z,100630.78
2023-03-16T23:28:21.975Z,100630.66
2023-03-16T23:30:48.390Z,100625.41
2023-03-16T23:33:14.767Z,100629.12
2023-03-16T23:35:41.534Z,100625.97
2023-03-16T23:38:08.394Z,100620.25
2023-03-16T23:40:35.034Z,100612.00
2023-03-16T23:43:02.194Z,100614.78
2023-03-16T23:45:28.523Z,100618.66
2023-03-16T23:47:54.868Z,100616.16
2023-03-16T23:50:21.188Z,100623.13
2023-03-16T23:52:47.499Z,100612.91
2023-03-16T23:55:14.391Z,100599.19
2023-03-16T23:57:41.063Z,100601.53
